sensor_id;sensor_type;location;lat;lon;timestamp;temperature;humidity
63260;DHT22;49390;51.380;0.098;2022-08-03T00:02:53;20.00;99.90
63260;DHT22;49390;51.380;0.098;2022-08-03T00:05:22;20.00;99.90
63260;DHT22;49390;51.380;0.098;2022-08-03T00:07:50;19.90;99.90
63260;DHT22;49390;51.380;0.098;2022-08-03T00:10:19;19.90;99.90
63260;DHT22;49390;51.380;0.098;2022-08-03T00:12:47;19.90;99.90
63260;DHT22;49390;51.380;0.098;2022-08-03T00:15:15;19.90;99.90
63260;DHT22;49390;51.380;0.098;2022-08-03T00:17:44;19.90;99.90
63260;DHT22;49390;51.380;0.098;2022-08-03T00:20:21;19.80;99.90
63260;DHT22;49390;51.380;0.098;2022-08-03T00:22:50;19.80;99.90
63260;DHT22;49390;51.380;0.098;2022-08-03T00:25:19;19.80;99.90
63260;DHT22;49390;51.380;0.098;2022-08-03T00:27:47;19.70;99.90
63260;DHT22;49390;51.380;0.098;2022-08-03T00:30:17;19.70;99.90
63260;DHT22;49390;51.380;0.098;2022-08-03T00:32:46;19.70;99.90
63260;DHT22;49390;51.380;0.098;2022-08-03T00:35:14;19.70;99.90
63260;DHT22;49390;51.380;0.098;2022-08-03T00:38:03;19.70;99.90
63260;DHT22;49390;51.380;0.098;2022-08-03T00:40:32;19.60;99.90
63260;DHT22;49390;51.380;0.098;2022-08-03T00:43:04;19.60;99.90
63260;DHT22;49390;51.380;0.098;2022-08-03T00:45:36;19.60;99.90
63260;DHT22;49390;51.380;0.098;2022-08-03T00:48:05;19.60;99.90
63260;DHT22;49390;51.380;0.098;2022-08-03T00:50:54;19.60;99.90
63260;DHT22;49390;51.380;0.098;2022-08-03T00:53:23;19.60;99.90
63260;DHT22;49390;51.380;0.098;2022-08-03T00:55:51;19.50;99.90
63260;DHT22;49390;51.380;0.098;2022-08-03T00:58:19;19.50;99.90
63260;DHT22;49390;51.380;0.098;2022-08-03T01:00:47;19.50;99.90
63260;DHT22;49390;51.380;0.098;2022-08-03T01:03:15;19.50;99.90
63260;DHT22;49390;51.380;0.098;2022-08-03T01:06:03;19.50;99.90
63260;DHT22;49390;51.380;0.098;2022-08-03T01:08:57;19.40;99.90
63260;DHT22;49390;51.380;0.098;2022-08-03T01:11:53;19.50;99.90
63260;DHT22;49390;51.380;0.098;2022-08-03T01:14:33;19.40;99.90
63260;DHT22;49390;51.380;0.098;2022-08-03T01:17:20;19.40;99.90
63260;DHT22;49390;51.380;0.098;2022-08-03T01:20:08;19.40;99.90
63260;DHT22;49390;51.380;0.098;2022-08-03T01:28:21;19.40;99.90
63260;DHT22;49390;51.380;0.098;2022-08-03T01:30:56;19.40;99.90
63260;DHT22;49390;51.380;0.098;2022-08-03T01:33:38;19.30;99.90
63260;DHT22;49390;51.380;0.098;2022-08-03T01:36:18;19.40;99.90
63260;DHT22;49390;51.380;0.098;2022-08-03T01:38:59;19.30;99.90
63260;DHT22;49390;51.380;0.098;2022-08-03T01:41:47;19.30;99.90
63260;DHT22;49390;51.380;0.098;2022-08-03T01:44:16;19.30;99.90
63260;DHT22;49390;51.380;0.098;2022-08-03T01:47:01;19.30;99.90
63260;DHT22;49390;51.380;0.098;2022-08-03T01:49:32;19.30;99.90
63260;DHT22;49390;51.380;0.098;2022-08-03T01:52:02;19.20;99.90
63260;DHT22;49390;51.380;0.098;2022-08-03T01:54:42;19.30;99.90
63260;DHT22;49390;51.380;0.098;2022-08-03T01:57:11;19.20;99.90
63260;DHT22;49390;51.380;0.098;2022-08-03T01:59:41;19.20;99.90
63260;DHT22;49390;51.380;0.098;2022-08-03T02:02:15;19.20;99.90
63260;DHT22;49390;51.380;0.098;2022-08-03T02:05:04;19.10;99.90
63260;DHT22;49390;51.380;0.098;2022-08-03T02:07:39;19.10;99.90
63260;DHT22;49390;51.380;0.098;2022-08-03T02:10:11;19.10;99.90
63260;DHT22;49390;51.380;0.098;2022-08-03T02:12:42;19.10;99.90
63260;DHT22;49390;51.380;0.098;2022-08-03T02:15:15;19.10;99.90
63260;DHT22;49390;51.380;0.098;2022-08-03T02:17:45;19.10;99.90
63260;DHT22;49390;51.380;0.098;2022-08-03T02:20:15;19.00;99.90
63260;DHT22;49390;51.380;0.098;2022-08-03T02:22:43;19.10;99.90
63260;DHT22;49390;51.380;0.098;2022-08-03T02:25:14;19.10;99.90
63260;DHT22;49390;51.380;0.098;2022-08-03T02:28:01;19.10;99.90
63260;DHT22;49390;51.380;0.098;2022-08-03T02:30:37;19.10;99.90
63260;DHT22;49390;51.380;0.098;2022-08-03T02:33:10;19.10;99.90
63260;DHT22;49390;51.380;0.098;2022-08-03T02:35:39;19.20;99.90
63260;DHT22;49390;51.380;0.098;2022-08-03T02:38:10;19.20;99.90
63260;DHT22;49390;51.380;0.098;2022-08-03T02:40:41;19.20;99.90
63260;DHT22;49390;51.380;0.098;2022-08-03T02:43:16;19.20;99.90
63260;DHT22;49390;51.380;0.098;2022-08-03T02:45:48;19.20;99.90
63260;DHT22;49390;51.380;0.098;2022-08-03T02:48:21;19.30;99.90
63260;DHT22;49390;51.380;0.098;2022-08-03T02:50:52;19.30;99.90
63260;DHT22;49390;51.380;0.098;2022-08-03T02:53:21;19.30;99.90
63260;DHT22;49390;51.380;0.098;2022-08-03T02:55:52;19.30;99.90
63260;DHT22;49390;51.380;0.098;2022-08-03T02:58:22;19.30;99.90
63260;DHT22;49390;51.380;0.098;2022-08-03T03:00:51;19.30;99.90
63260;DHT22;49390;51.380;0.098;2022-08-03T03:03:22;19.30;99.90
63260;DHT22;49390;51.380;0.098;2022-08-03T03:05:52;19.30;99.90
63260;DHT22;49390;51.380;0.098;2022-08-03T03:08:24;19.40;99.90
63260;DHT22;49390;51.380;0.098;2022-08-03T03:10:59;19.40;99.90
63260;DHT22;49390;51.380;0.098;2022-08-03T03:13:28;19.40;99.90
63260;DHT22;49390;51.380;0.098;2022-08-03T03:16:02;19.40;99.90
63260;DHT22;49390;51.380;0.098;2022-08-03T03:18:31;19.40;99.90
63260;DHT22;49390;51.380;0.098;2022-08-03T03:21:03;19.50;99.90
63260;DHT22;49390;51.380;0.098;2022-08-03T03:23:35;19.40;99.90
63260;DHT22;49390;51.380;0.098;2022-08-03T03:26:05;19.40;99.90
63260;DHT22;49390;51.380;0.098;2022-08-03T03:31:00;19.50;99.90
63260;DHT22;49390;51.380;0.098;2022-08-03T03:33:28;19.50;99.90
63260;DHT22;49390;51.380;0.098;2022-08-03T03:35:57;19.50;99.90
63260;DHT22;49390;51.380;0.098;2022-08-03T03:38:26;19.50;99.90
63260;DHT22;49390;51.380;0.098;2022-08-03T03:40:54;19.50;99.90
63260;DHT22;49390;51.380;0.098;2022-08-03T03:43:23;19.50;99.90
63260;DHT22;49390;51.380;0.098;2022-08-03T03:45:51;19.50;99.90
63260;DHT22;49390;51.380;0.098;2022-08-03T03:48:20;19.50;99.90
63260;DHT22;49390;51.380;0.098;2022-08-03T03:50:49;19.50;99.90
63260;DHT22;49390;51.380;0.098;2022-08-03T03:53:17;19.50;99.90
63260;DHT22;49390;51.380;0.098;2022-08-03T03:55:47;19.50;99.90
63260;DHT22;49390;51.380;0.098;2022-08-03T03:58:30;19.50;99.90
63260;DHT22;49390;51.380;0.098;2022-08-03T04:00:59;19.60;99.90
63260;DHT22;49390;51.380;0.098;2022-08-03T04:03:27;19.60;99.90
63260;DHT22;49390;51.380;0.098;2022-08-03T04:05:56;19.60;99.90
63260;DHT22;49390;51.380;0.098;2022-08-03T04:08:43;19.60;99.90
63260;DHT22;49390;51.380;0.098;2022-08-03T04:11:34;19.60;99.90
63260;DHT22;49390;51.380;0.098;2022-08-03T04:14:28;19.60;99.90
63260;DHT22;49390;51.380;0.098;2022-08-03T04:17:04;19.60;99.90
63260;DHT22;49390;51.380;0.098;2022-08-03T04:19:48;19.60;99.90
63260;DHT22;49390;51.380;0.098;2022-08-03T04:22:21;19.60;99.90
63260;DHT22;49390;51.380;0.098;2022-08-03T04:24:57;19.60;99.90
63260;DHT22;49390;51.380;0.098;2022-08-03T04:27:30;19.70;99.90
63260;DHT22;49390;51.380;0.098;2022-08-03T04:30:02;19.70;99.90
63260;DHT22;49390;51.380;0.098;2022-08-03T04:32:31;19.60;99.90
63260;DHT22;49390;51.380;0.098;2022-08-03T04:34:59;19.70;99.90
63260;DHT22;49390;51.380;0.098;2022-08-03T04:37:42;19.70;99.90
63260;DHT22;49390;51.380;0.098;2022-08-03T04:40:15;19.60;99.90
63260;DHT22;49390;51.380;0.098;2022-08-03T04:42:50;19.70;99.90
63260;DHT22;49390;51.380;0.098;2022-08-03T04:45:20;19.60;99.90
63260;DHT22;49390;51.380;0.098;2022-08-03T04:47:49;19.60;99.90
63260;DHT22;49390;51.380;0.098;2022-08-03T04:50:18;19.60;99.90
63260;DHT22;49390;51.380;0.098;2022-08-03T04:53:05;19.60;99.90
63260;DHT22;49390;51.380;0.098;2022-08-03T04:55:34;19.60;99.90
63260;DHT22;49390;51.380;0.098;2022-08-03T04:58:04;19.60;99.90
63260;DHT22;49390;51.380;0.098;2022-08-03T05:00:33;19.60;99.90
63260;DHT22;49390;51.380;0.098;2022-08-03T05:03:01;19.70;99.90
63260;DHT22;49390;51.380;0.098;2022-08-03T05:05:29;19.70;99.90
63260;DHT22;49390;51.380;0.098;2022-08-03T05:08:17;19.70;99.90
63260;DHT22;49390;51.380;0.098;2022-08-03T05:10:55;19.70;99.90
63260;DHT22;49390;51.380;0.098;2022-08-03T05:13:26;19.70;99.90
63260;DHT22;49390;51.380;0.098;2022-08-03T05:15:54;19.70;99.90
63260;DHT22;49390;51.380;0.098;2022-08-03T05:18:23;19.70;99.90
63260;DHT22;49390;51.380;0.098;2022-08-03T05:20:51;19.60;99.90
63260;DHT22;49390;51.380;0.098;2022-08-03T05:23:19;19.70;99.90
63260;DHT22;49390;51.380;0.098;2022-08-03T05:25:48;19.60;99.90
63260;DHT22;49390;51.380;0.098;2022-08-03T05:28:17;19.70;99.90
63260;DHT22;49390;51.380;0.098;2022-08-03T05:30:45;19.60;99.90
63260;DHT22;49390;51.380;0.098;2022-08-03T05:33:17;19.70;99.90
63260;DHT22;49390;51.380;0.098;2022-08-03T05:35:45;19.60;99.90
63260;DHT22;49390;51.380;0.098;2022-08-03T05:38:29;19.60;99.90
63260;DHT22;49390;51.380;0.098;2022-08-03T05:41:04;19.60;99.90
63260;DHT22;49390;51.380;0.098;2022-08-03T05:43:52;19.60;99.90
63260;DHT22;49390;51.380;0.098;2022-08-03T05:46:21;19.60;99.90
63260;DHT22;49390;51.380;0.098;2022-08-03T05:48:50;19.60;99.90
63260;DHT22;49390;51.380;0.098;2022-08-03T05:51:19;19.70;99.90
63260;DHT22;49390;51.380;0.098;2022-08-03T05:53:47;19.70;99.90
63260;DHT22;49390;51.380;0.098;2022-08-03T05:56:15;19.80;99.90
63260;DHT22;49390;51.380;0.098;2022-08-03T05:58:47;19.80;99.90
63260;DHT22;49390;51.380;0.098;2022-08-03T06:01:15;19.90;99.90
63260;DHT22;49390;51.380;0.098;2022-08-03T06:03:44;20.00;99.90
63260;DHT22;49390;51.380;0.098;2022-08-03T06:06:13;20.00;99.90
63260;DHT22;49390;51.380;0.098;2022-08-03T06:08:42;20.00;99.90
63260;DHT22;49390;51.380;0.098;2022-08-03T06:11:11;20.10;99.90
63260;DHT22;49390;51.380;0.098;2022-08-03T06:13:40;20.20;99.90
63260;DHT22;49390;51.380;0.098;2022-08-03T06:16:09;20.20;99.90
63260;DHT22;49390;51.380;0.098;2022-08-03T06:18:37;20.30;99.90
63260;DHT22;49390;51.380;0.098;2022-08-03T06:21:05;20.40;99.90
63260;DHT22;49390;51.380;0.098;2022-08-03T06:23:43;20.30;99.90
63260;DHT22;49390;51.380;0.098;2022-08-03T06:26:24;20.40;99.90
63260;DHT22;49390;51.380;0.098;2022-08-03T06:28:52;20.50;99.90
63260;DHT22;49390;51.380;0.098;2022-08-03T06:31:26;20.50;99.90
63260;DHT22;49390;51.380;0.098;2022-08-03T06:34:04;20.50;99.90
63260;DHT22;49390;51.380;0.098;2022-08-03T06:36:53;20.60;99.90
63260;DHT22;49390;51.380;0.098;2022-08-03T06:39:28;20.70;99.90
63260;DHT22;49390;51.380;0.098;2022-08-03T06:41:57;20.70;99.90
63260;DHT22;49390;51.380;0.098;2022-08-03T06:44:25;20.80;99.90
63260;DHT22;49390;51.380;0.098;2022-08-03T06:46:53;20.90;99.90
63260;DHT22;49390;51.380;0.098;2022-08-03T06:49:21;20.90;99.90
63260;DHT22;49390;51.380;0.098;2022-08-03T06:51:49;21.00;99.90
63260;DHT22;49390;51.380;0.098;2022-08-03T06:54:33;21.00;99.90
63260;DHT22;49390;51.380;0.098;2022-08-03T06:57:02;21.00;99.90
63260;DHT22;49390;51.380;0.098;2022-08-03T06:59:31;21.00;99.90
63260;DHT22;49390;51.380;0.098;2022-08-03T07:02:20;21.10;99.90
63260;DHT22;49390;51.380;0.098;2022-08-03T07:04:50;21.10;99.90
63260;DHT22;49390;51.380;0.098;2022-08-03T07:07:19;21.20;99.90
63260;DHT22;49390;51.380;0.098;2022-08-03T07:09:47;21.20;99.90
63260;DHT22;49390;51.380;0.098;2022-08-03T07:12:25;21.20;99.90
63260;DHT22;49390;51.380;0.098;2022-08-03T07:14:54;21.20;99.90
63260;DHT22;49390;51.380;0.098;2022-08-03T07:17:29;21.20;99.90
63260;DHT22;49390;51.380;0.098;2022-08-03T07:19:59;21.10;99.90
63260;DHT22;49390;51.380;0.098;2022-08-03T07:22:28;21.10;99.90
63260;DHT22;49390;51.380;0.098;2022-08-03T07:24:56;21.20;99.90
63260;DHT22;49390;51.380;0.098;2022-08-03T07:27:25;21.20;99.90
63260;DHT22;49390;51.380;0.098;2022-08-03T07:29:54;21.30;99.90
63260;DHT22;49390;51.380;0.098;2022-08-03T07:32:23;21.30;99.90
63260;DHT22;49390;51.380;0.098;2022-08-03T07:34:51;21.30;99.90
63260;DHT22;49390;51.380;0.098;2022-08-03T07:37:27;21.40;99.90
63260;DHT22;49390;51.380;0.098;2022-08-03T07:39:55;21.50;99.90
63260;DHT22;49390;51.380;0.098;2022-08-03T07:42:25;21.60;99.90
63260;DHT22;49390;51.380;0.098;2022-08-03T07:44:54;21.70;99.90
63260;DHT22;49390;51.380;0.098;2022-08-03T07:47:24;21.80;99.90
63260;DHT22;49390;51.380;0.098;2022-08-03T07:50:04;21.80;99.90
63260;DHT22;49390;51.380;0.098;2022-08-03T07:52:32;21.90;99.90
63260;DHT22;49390;51.380;0.098;2022-08-03T07:55:21;21.80;99.90
63260;DHT22;49390;51.380;0.098;2022-08-03T07:58:06;21.80;99.90
63260;DHT22;49390;51.380;0.098;2022-08-03T08:00:36;21.80;99.90
63260;DHT22;49390;51.380;0.098;2022-08-03T08:03:04;21.90;99.90
63260;DHT22;49390;51.380;0.098;2022-08-03T08:05:32;21.90;99.90
63260;DHT22;49390;51.380;0.098;2022-08-03T08:08:01;22.00;99.90
63260;DHT22;49390;51.380;0.098;2022-08-03T08:10:29;22.10;99.90
63260;DHT22;49390;51.380;0.098;2022-08-03T08:12:58;22.10;99.90
63260;DHT22;49390;51.380;0.098;2022-08-03T08:15:26;22.10;99.90
63260;DHT22;49390;51.380;0.098;2022-08-03T08:17:57;22.10;99.90
63260;DHT22;49390;51.380;0.098;2022-08-03T08:20:28;22.20;99.90
63260;DHT22;49390;51.380;0.098;2022-08-03T08:23:00;22.20;99.90
63260;DHT22;49390;51.380;0.098;2022-08-03T08:25:31;22.30;99.90
63260;DHT22;49390;51.380;0.098;2022-08-03T08:28:00;22.40;99.90
63260;DHT22;49390;51.380;0.098;2022-08-03T08:30:50;22.60;99.90
63260;DHT22;49390;51.380;0.098;2022-08-03T08:33:18;22.70;99.90
63260;DHT22;49390;51.380;0.098;2022-08-03T08:35:51;22.70;99.90
63260;DHT22;49390;51.380;0.098;2022-08-03T08:38:21;22.80;99.90
63260;DHT22;49390;51.380;0.098;2022-08-03T08:40:50;23.00;99.90
63260;DHT22;49390;51.380;0.098;2022-08-03T08:43:18;23.10;99.90
63260;DHT22;49390;51.380;0.098;2022-08-03T08:45:51;23.30;99.90
63260;DHT22;49390;51.380;0.098;2022-08-03T08:48:23;23.50;99.90
63260;DHT22;49390;51.380;0.098;2022-08-03T08:50:55;23.60;99.90
63260;DHT22;49390;51.380;0.098;2022-08-03T08:53:28;23.70;99.90
63260;DHT22;49390;51.380;0.098;2022-08-03T08:55:58;23.70;99.90
63260;DHT22;49390;51.380;0.098;2022-08-03T08:58:30;23.80;99.90
63260;DHT22;49390;51.380;0.098;2022-08-03T09:01:03;23.90;99.90
63260;DHT22;49390;51.380;0.098;2022-08-03T09:03:33;24.00;99.90
63260;DHT22;49390;51.380;0.098;2022-08-03T09:06:01;24.10;99.90
63260;DHT22;49390;51.380;0.098;2022-08-03T09:08:33;24.30;99.90
63260;DHT22;49390;51.380;0.098;2022-08-03T09:11:01;24.60;99.90
63260;DHT22;49390;51.380;0.098;2022-08-03T09:13:29;25.00;99.90
63260;DHT22;49390;51.380;0.098;2022-08-03T09:16:14;25.00;99.90
63260;DHT22;49390;51.380;0.098;2022-08-03T09:18:47;25.00;99.90
63260;DHT22;49390;51.380;0.098;2022-08-03T09:24:02;24.80;99.90
63260;DHT22;49390;51.380;0.098;2022-08-03T09:26:34;24.70;99.90
63260;DHT22;49390;51.380;0.098;2022-08-03T09:29:08;24.60;99.90
63260;DHT22;49390;51.380;0.098;2022-08-03T09:31:44;24.70;99.90
63260;DHT22;49390;51.380;0.098;2022-08-03T09:34:16;24.70;99.90
63260;DHT22;49390;51.380;0.098;2022-08-03T09:36:46;24.80;99.90
63260;DHT22;49390;51.380;0.098;2022-08-03T09:39:21;24.90;99.90
63260;DHT22;49390;51.380;0.098;2022-08-03T09:42:15;25.00;99.90
63260;DHT22;49390;51.380;0.098;2022-08-03T09:44:46;24.90;99.90
63260;DHT22;49390;51.380;0.098;2022-08-03T09:47:37;24.80;99.90
63260;DHT22;49390;51.380;0.098;2022-08-03T09:50:12;24.80;99.90
63260;DHT22;49390;51.380;0.098;2022-08-03T09:52:40;24.90;99.90
63260;DHT22;49390;51.380;0.098;2022-08-03T09:55:19;24.90;99.90
63260;DHT22;49390;51.380;0.098;2022-08-03T09:58:08;25.00;99.90
63260;DHT22;49390;51.380;0.098;2022-08-03T10:01:06;25.10;99.90
63260;DHT22;49390;51.380;0.098;2022-08-03T10:03:57;25.20;99.90
63260;DHT22;49390;51.380;0.098;2022-08-03T10:06:31;25.30;99.90
63260;DHT22;49390;51.380;0.098;2022-08-03T10:11:39;25.30;99.90
63260;DHT22;49390;51.380;0.098;2022-08-03T10:14:11;25.40;99.90
63260;DHT22;49390;51.380;0.098;2022-08-03T10:16:49;25.50;99.90
63260;DHT22;49390;51.380;0.098;2022-08-03T10:19:18;25.70;99.90
63260;DHT22;49390;51.380;0.098;2022-08-03T10:21:54;26.00;99.90
63260;DHT22;49390;51.380;0.098;2022-08-03T10:24:27;26.20;99.90
63260;DHT22;49390;51.380;0.098;2022-08-03T10:27:01;26.40;99.90
63260;DHT22;49390;51.380;0.098;2022-08-03T10:29:36;26.50;99.90
63260;DHT22;49390;51.380;0.098;2022-08-03T10:32:09;26.60;99.90
63260;DHT22;49390;51.380;0.098;2022-08-03T10:34:43;26.60;99.90
63260;DHT22;49390;51.380;0.098;2022-08-03T10:37:14;26.70;99.90
63260;DHT22;49390;51.380;0.098;2022-08-03T10:39:44;26.70;99.90
63260;DHT22;49390;51.380;0.098;2022-08-03T10:42:23;26.70;99.90
63260;DHT22;49390;51.380;0.098;2022-08-03T10:44:55;26.70;99.90
63260;DHT22;49390;51.380;0.098;2022-08-03T10:47:27;26.80;99.90
63260;DHT22;49390;51.380;0.098;2022-08-03T10:49:56;27.00;99.90
63260;DHT22;49390;51.380;0.098;2022-08-03T10:52:26;27.10;99.90
63260;DHT22;49390;51.380;0.098;2022-08-03T10:55:31;27.20;99.90
63260;DHT22;49390;51.380;0.098;2022-08-03T11:01:49;27.50;99.90
63260;DHT22;49390;51.380;0.098;2022-08-03T11:04:28;27.40;99.90
63260;DHT22;49390;51.380;0.098;2022-08-03T11:07:17;27.30;99.90
63260;DHT22;49390;51.380;0.098;2022-08-03T11:09:51;27.00;99.90
63260;DHT22;49390;51.380;0.098;2022-08-03T11:12:27;26.90;99.90
63260;DHT22;49390;51.380;0.098;2022-08-03T11:15:03;26.80;99.90
63260;DHT22;49390;51.380;0.098;2022-08-03T11:17:34;26.80;99.90
63260;DHT22;49390;51.380;0.098;2022-08-03T11:20:54;26.70;99.90
63260;DHT22;49390;51.380;0.098;2022-08-03T11:23:43;26.70;99.90
63260;DHT22;49390;51.380;0.098;2022-08-03T11:26:31;26.70;99.90
63260;DHT22;49390;51.380;0.098;2022-08-03T11:29:27;26.70;99.90
63260;DHT22;49390;51.380;0.098;2022-08-03T11:31:56;26.70;99.90
63260;DHT22;49390;51.380;0.098;2022-08-03T11:34:25;26.80;99.90
63260;DHT22;49390;51.380;0.098;2022-08-03T11:37:17;26.80;99.90
63260;DHT22;49390;51.380;0.098;2022-08-03T11:39:50;26.90;99.90
63260;DHT22;49390;51.380;0.098;2022-08-03T11:44:57;27.30;99.90
63260;DHT22;49390;51.380;0.098;2022-08-03T11:47:27;27.40;99.90
63260;DHT22;49390;51.380;0.098;2022-08-03T11:49:57;27.50;99.90
63260;DHT22;49390;51.380;0.098;2022-08-03T11:52:33;27.60;99.90
63260;DHT22;49390;51.380;0.098;2022-08-03T11:55:08;27.60;99.90
63260;DHT22;49390;51.380;0.098;2022-08-03T11:57:36;27.50;99.90
63260;DHT22;49390;51.380;0.098;2022-08-03T12:00:28;27.50;99.90
63260;DHT22;49390;51.380;0.098;2022-08-03T12:03:02;27.50;99.90
63260;DHT22;49390;51.380;0.098;2022-08-03T12:05:51;27.50;99.90
63260;DHT22;49390;51.380;0.098;2022-08-03T12:08:39;27.40;99.90
63260;DHT22;49390;51.380;0.098;2022-08-03T12:11:10;27.50;99.90
63260;DHT22;49390;51.380;0.098;2022-08-03T12:16:27;27.90;99.90
63260;DHT22;49390;51.380;0.098;2022-08-03T12:18:56;28.00;99.90
63260;DHT22;49390;51.380;0.098;2022-08-03T12:21:24;28.10;99.90
63260;DHT22;49390;51.380;0.098;2022-08-03T12:24:00;28.20;99.90
63260;DHT22;49390;51.380;0.098;2022-08-03T12:26:42;28.20;99.90
63260;DHT22;49390;51.380;0.098;2022-08-03T12:29:20;28.30;99.90
63260;DHT22;49390;51.380;0.098;2022-08-03T12:31:49;28.40;99.90
63260;DHT22;49390;51.380;0.098;2022-08-03T12:34:17;28.40;99.90
63260;DHT22;49390;51.380;0.098;2022-08-03T12:36:51;28.40;99.90
63260;DHT22;49390;51.380;0.098;2022-08-03T12:39:24;28.30;99.90
63260;DHT22;49390;51.380;0.098;2022-08-03T12:41:55;28.20;99.90
63260;DHT22;49390;51.380;0.098;2022-08-03T12:44:34;28.20;99.90
63260;DHT22;49390;51.380;0.098;2022-08-03T12:47:06;28.30;99.90
63260;DHT22;49390;51.380;0.098;2022-08-03T12:49:51;28.40;99.90
63260;DHT22;49390;51.380;0.098;2022-08-03T12:52:21;28.50;99.90
63260;DHT22;49390;51.380;0.098;2022-08-03T12:54:57;28.70;99.80
63260;DHT22;49390;51.380;0.098;2022-08-03T12:57:39;28.90;99.00
63260;DHT22;49390;51.380;0.098;2022-08-03T13:00:18;29.10;97.90
63260;DHT22;49390;51.380;0.098;2022-08-03T13:05:49;29.20;96.00
63260;DHT22;49390;51.380;0.098;2022-08-03T13:08:22;29.20;95.70
63260;DHT22;49390;51.380;0.098;2022-08-03T13:10:51;29.30;95.00
63260;DHT22;49390;51.380;0.098;2022-08-03T13:13:37;29.30;94.30
63260;DHT22;49390;51.380;0.098;2022-08-03T13:16:05;29.30;93.80
63260;DHT22;49390;51.380;0.098;2022-08-03T13:18:33;29.40;93.50
63260;DHT22;49390;51.380;0.098;2022-08-03T13:21:01;29.40;93.00
63260;DHT22;49390;51.380;0.098;2022-08-03T13:23:29;29.50;92.90
63260;DHT22;49390;51.380;0.098;2022-08-03T13:25:57;29.40;93.00
63260;DHT22;49390;51.380;0.098;2022-08-03T13:28:26;29.40;92.60
63260;DHT22;49390;51.380;0.098;2022-08-03T13:30:54;29.50;92.40
63260;DHT22;49390;51.380;0.098;2022-08-03T13:33:22;29.60;91.90
63260;DHT22;49390;51.380;0.098;2022-08-03T13:35:52;29.60;91.90
63260;DHT22;49390;51.380;0.098;2022-08-03T13:38:20;29.70;91.90
63260;DHT22;49390;51.380;0.098;2022-08-03T13:40:54;29.70;91.40
63260;DHT22;49390;51.380;0.098;2022-08-03T13:43:23;29.80;90.50
63260;DHT22;49390;51.380;0.098;2022-08-03T13:45:51;29.90;89.90
63260;DHT22;49390;51.380;0.098;2022-08-03T13:48:24;29.90;88.50
63260;DHT22;49390;51.380;0.098;2022-08-03T13:51:04;30.00;87.60
63260;DHT22;49390;51.380;0.098;2022-08-03T13:53:50;29.90;87.20
63260;DHT22;49390;51.380;0.098;2022-08-03T13:56:18;30.00;87.60
63260;DHT22;49390;51.380;0.098;2022-08-03T13:58:46;30.00;85.60
63260;DHT22;49390;51.380;0.098;2022-08-03T14:01:15;29.90;86.20
63260;DHT22;49390;51.380;0.098;2022-08-03T14:03:43;29.90;85.50
63260;DHT22;49390;51.380;0.098;2022-08-03T14:06:13;29.90;85.00
63260;DHT22;49390;51.380;0.098;2022-08-03T14:08:42;30.00;84.30
63260;DHT22;49390;51.380;0.098;2022-08-03T14:11:11;30.00;82.90
63260;DHT22;49390;51.380;0.098;2022-08-03T14:13:42;30.00;82.10
63260;DHT22;49390;51.380;0.098;2022-08-03T14:16:11;30.10;81.10
63260;DHT22;49390;51.380;0.098;2022-08-03T14:18:44;30.10;80.10
63260;DHT22;49390;51.380;0.098;2022-08-03T14:21:12;30.00;79.00
63260;DHT22;49390;51.380;0.098;2022-08-03T14:23:40;30.00;78.30
63260;DHT22;49390;51.380;0.098;2022-08-03T14:26:09;30.10;78.10
63260;DHT22;49390;51.380;0.098;2022-08-03T14:28:37;30.20;77.30
63260;DHT22;49390;51.380;0.098;2022-08-03T14:31:06;30.20;76.60
63260;DHT22;49390;51.380;0.098;2022-08-03T14:33:42;30.20;76.10
63260;DHT22;49390;51.380;0.098;2022-08-03T14:36:11;30.30;75.80
63260;DHT22;49390;51.380;0.098;2022-08-03T14:38:39;30.30;75.40
63260;DHT22;49390;51.380;0.098;2022-08-03T14:41:07;30.30;73.60
63260;DHT22;49390;51.380;0.098;2022-08-03T14:43:46;30.30;73.00
63260;DHT22;49390;51.380;0.098;2022-08-03T14:46:29;30.30;73.20
63260;DHT22;49390;51.380;0.098;2022-08-03T14:49:00;30.30;73.80
63260;DHT22;49390;51.380;0.098;2022-08-03T14:51:49;30.30;72.90
63260;DHT22;49390;51.380;0.098;2022-08-03T14:54:21;30.40;72.70
63260;DHT22;49390;51.380;0.098;2022-08-03T14:56:50;30.40;72.30
63260;DHT22;49390;51.380;0.098;2022-08-03T14:59:19;30.40;72.20
63260;DHT22;49390;51.380;0.098;2022-08-03T15:01:47;30.30;72.20
63260;DHT22;49390;51.380;0.098;2022-08-03T15:04:30;30.40;72.90
63260;DHT22;49390;51.380;0.098;2022-08-03T15:06:58;30.40;72.30
63260;DHT22;49390;51.380;0.098;2022-08-03T15:09:26;30.30;73.20
63260;DHT22;49390;51.380;0.098;2022-08-03T15:11:55;30.40;73.70
63260;DHT22;49390;51.380;0.098;2022-08-03T15:14:24;30.40;73.80
63260;DHT22;49390;51.380;0.098;2022-08-03T15:17:00;30.30;74.00
63260;DHT22;49390;51.380;0.098;2022-08-03T15:19:28;30.20;75.30
63260;DHT22;49390;51.380;0.098;2022-08-03T15:22:17;30.20;76.30
63260;DHT22;49390;51.380;0.098;2022-08-03T15:24:52;30.10;77.50
63260;DHT22;49390;51.380;0.098;2022-08-03T15:27:21;30.20;77.90
63260;DHT22;49390;51.380;0.098;2022-08-03T15:29:50;30.20;77.20
63260;DHT22;49390;51.380;0.098;2022-08-03T15:32:37;30.10;78.40
63260;DHT22;49390;51.380;0.098;2022-08-03T15:35:07;30.00;79.80
63260;DHT22;49390;51.380;0.098;2022-08-03T15:37:35;30.00;80.40
63260;DHT22;49390;51.380;0.098;2022-08-03T15:40:04;30.10;80.30
63260;DHT22;49390;51.380;0.098;2022-08-03T15:42:32;30.00;80.30
63260;DHT22;49390;51.380;0.098;2022-08-03T15:45:02;29.90;81.60
63260;DHT22;49390;51.380;0.098;2022-08-03T15:47:31;29.70;83.30
63260;DHT22;49390;51.380;0.098;2022-08-03T15:49:59;29.70;84.50
63260;DHT22;49390;51.380;0.098;2022-08-03T15:52:27;29.80;84.10
63260;DHT22;49390;51.380;0.098;2022-08-03T15:54:55;29.90;83.20
63260;DHT22;49390;51.380;0.098;2022-08-03T15:57:24;29.80;83.30
63260;DHT22;49390;51.380;0.098;2022-08-03T15:59:52;29.70;84.00
63260;DHT22;49390;51.380;0.098;2022-08-03T16:02:21;29.70;85.00
63260;DHT22;49390;51.380;0.098;2022-08-03T16:04:49;29.70;85.70
63260;DHT22;49390;51.380;0.098;2022-08-03T16:07:17;29.50;86.60
63260;DHT22;49390;51.380;0.098;2022-08-03T16:10:06;29.50;88.20
63260;DHT22;49390;51.380;0.098;2022-08-03T16:12:35;29.50;89.10
63260;DHT22;49390;51.380;0.098;2022-08-03T16:15:04;29.50;88.20
63260;DHT22;49390;51.380;0.098;2022-08-03T16:17:32;29.50;88.30
63260;DHT22;49390;51.380;0.098;2022-08-03T16:20:00;29.50;89.50
63260;DHT22;49390;51.380;0.098;2022-08-03T16:22:45;29.40;90.10
63260;DHT22;49390;51.380;0.098;2022-08-03T16:25:15;29.20;91.00
63260;DHT22;49390;51.380;0.098;2022-08-03T16:27:45;29.20;91.60
63260;DHT22;49390;51.380;0.098;2022-08-03T16:30:33;29.10;92.30
63260;DHT22;49390;51.380;0.098;2022-08-03T16:33:01;29.00;93.00
63260;DHT22;49390;51.380;0.098;2022-08-03T16:35:31;29.10;93.30